createdAt,value
2022-09-14T00:01:45.117Z,98497.06
2022-09-14T00:04:20.184Z,98505.81
2022-09-14T00:06:49.349Z,98492.63
2022-09-14T00:09:20.678Z,98494.25
2022-09-14T00:11:49.213Z,98491.91
2022-09-14T00:14:21.174Z,98494.69
2022-09-14T00:16:51.019Z,98486.75
2022-09-14T00:19:23.394Z,98488.72
2022-09-14T00:21:54.486Z,98483.94
2022-09-14T00:24:24.278Z,98490.81
2022-09-14T00:26:52.964Z,98483.22
2022-09-14T00:29:21.437Z,98473.63
2022-09-14T00:31:49.888Z,98475.66
2022-09-14T00:34:20.873Z,98472.03
2022-09-14T00:36:52.980Z,98473.56
2022-09-14T00:39:25.098Z,98465.91
2022-09-14T00:41:54.495Z,98470.22
2022-09-14T00:45:02.496Z,98469.97
2022-09-14T00:47:33.104Z,98459.50
2022-09-14T00:50:05.647Z,98460.13
2022-09-14T00:52:38.582Z,98456.34
2022-09-14T00:55:11.943Z,98454.19
2022-09-14T00:57:45.245Z,98461.25
2022-09-14T01:00:17.843Z,98457.91
2022-09-14T01:02:46.705Z,98461.34
2022-09-14T01:05:17.588Z,98461.16
2022-09-14T01:08:13.391Z,98453.41
2022-09-14T01:11:08.083Z,98460.44
2022-09-14T01:13:52.181Z,98449.16
2022-09-14T01:16:32.430Z,98451.03
2022-09-14T01:19:06.502Z,98450.91
2022-09-14T01:21:39.172Z,98449.19
2022-09-14T01:24:17.904Z,98457.50
2022-09-14T01:27:30.100Z,98464.19
2022-09-14T01:30:08.251Z,98454.97
2022-09-14T01:32:44.243Z,98467.41
2022-09-14T01:35:22.253Z,98455.53
2022-09-14T01:37:57.206Z,98452.00
2022-09-14T01:40:31.631Z,98454.09
2022-09-14T01:43:09.179Z,98448.59
2022-09-14T01:45:42.167Z,98452.78
2022-09-14T01:48:13.875Z,98458.44
2022-09-14T01:50:47.375Z,98454.94
2022-09-14T01:53:23.851Z,98444.19
2022-09-14T01:55:59.094Z,98444.31
2022-09-14T01:58:35.935Z,98450.34
2022-09-14T02:01:08.051Z,98448.00
2022-09-14T02:03:43.001Z,98446.03
2022-09-14T02:06:18.031Z,98441.59
2022-09-14T02:08:47.314Z,98435.66
2022-09-14T02:11:15.753Z,98431.22
2022-09-14T02:13:45.581Z,98431.22
2022-09-14T02:16:14.428Z,98432.38
2022-09-14T02:18:43.945Z,98426.44
2022-09-14T02:21:21.073Z,98432.75
2022-09-14T02:23:50.171Z,98429.25
2022-09-14T02:26:22.471Z,98422.47
2022-09-14T02:28:56.005Z,98426.44
2022-09-14T02:31:40.856Z,98423.22
2022-09-14T02:34:17.425Z,98410.00
2022-09-14T02:36:54.950Z,98393.25
2022-09-14T02:39:31.715Z,98392.09
2022-09-14T02:42:13.128Z,98389.28
2022-09-14T02:44:55.040Z,98394.06
2022-09-14T02:47:31.718Z,98389.28
2022-09-14T02:50:08.027Z,98383.69
2022-09-14T02:52:42.299Z,98386.50
2022-09-14T02:55:15.651Z,98393.25
2022-09-14T02:58:05.613Z,98384.41
2022-09-14T03:00:40.395Z,98390.94
2022-09-14T03:03:11.534Z,98394.50
2022-09-14T03:05:40.285Z,98394.16
2022-09-14T03:08:10.323Z,98401.03
2022-09-14T03:10:39.464Z,98403.81
2022-09-14T03:13:07.818Z,98400.66
2022-09-14T03:15:37.627Z,98395.06
2022-09-14T03:18:11.062Z,98387.47
2022-09-14T03:20:42.369Z,98382.22
2022-09-14T03:23:11.602Z,98377.00
2022-09-14T03:25:42.189Z,98358.09
2022-09-14T03:28:12.950Z,98380.78
2022-09-14T03:30:42.750Z,98391.91
2022-09-14T03:33:11.102Z,98393.81
2022-09-14T03:35:39.469Z,98392.91
2022-09-14T03:38:08.564Z,98396.41
2022-09-14T03:40:37.020Z,98386.38
2022-09-14T03:43:05.409Z,98386.38
2022-09-14T03:45:33.830Z,98380.78
2022-09-14T03:48:05.328Z,98381.59
2022-09-14T03:50:34.055Z,98384.88
2022-09-14T03:53:02.447Z,98397.31
2022-09-14T03:55:30.819Z,98394.97
2022-09-14T03:57:59.181Z,98394.25
2022-09-14T04:00:27.775Z,98393.53
2022-09-14T04:02:56.284Z,98391.63
2022-09-14T04:05:26.149Z,98402.91
2022-09-14T04:07:54.501Z,98402.19
2022-09-14T04:10:22.951Z,98426.25
2022-09-14T04:12:51.448Z,98416.78
2022-09-14T04:15:20.045Z,98407.31
2022-09-14T04:17:48.766Z,98397.00
2022-09-14T04:20:18.323Z,98404.66
2022-09-14T04:22:48.553Z,98404.28
2022-09-14T04:25:17.231Z,98389.97
2022-09-14T04:27:55.029Z,98387.63
2022-09-14T04:30:35.493Z,98379.22
2022-09-14T04:33:03.858Z,98376.88
2022-09-14T04:35:32.327Z,98370.47
2022-09-14T04:38:02.076Z,98379.22
2022-09-14T04:40:30.474Z,98372.38
2022-09-14T04:42:58.871Z,98362.34
2022-09-14T04:45:27.629Z,98362.72
2022-09-14T04:47:56.033Z,98366.34
2022-09-14T04:50:24.382Z,98365.50
2022-09-14T04:52:52.717Z,98357.13
2022-09-14T04:55:24.180Z,98354.69
2022-09-14T04:57:52.674Z,98351.53
2022-09-14T05:00:21.760Z,98343.97
2022-09-14T05:02:50.209Z,98353.59
2022-09-14T05:05:18.723Z,98355.22
2022-09-14T05:07:47.154Z,98362.88
2022-09-14T05:10:15.758Z,98370.56
2022-09-14T05:12:45.511Z,98384.16
2022-09-14T05:15:14.151Z,98386.25
2022-09-14T05:17:42.544Z,98380.28
2022-09-14T05:20:11.643Z,98392.72
2022-09-14T05:22:40.067Z,98395.97
2022-09-14T05:25:09.551Z,98381.59
2022-09-14T05:27:37.908Z,98379.72
2022-09-14T05:30:09.925Z,98392.44
2022-09-14T05:32:38.304Z,98393.31
2022-09-14T05:35:07.834Z,98393.41
2022-09-14T05:37:36.514Z,98383.47
2022-09-14T05:40:06.390Z,98376.72
2022-09-14T05:42:34.793Z,98380.34
2022-09-14T05:45:03.357Z,98371.13
2022-09-14T05:47:38.379Z,98367.13
2022-09-14T05:50:09.543Z,98364.00
2022-09-14T05:52:37.953Z,98364.50
2022-09-14T05:55:07.934Z,98371.00
2022-09-14T05:57:36.310Z,98364.19
2022-09-14T06:00:06.484Z,98355.81
2022-09-14T06:02:36.250Z,98359.47
2022-09-14T06:05:05.096Z,98369.50
2022-09-14T06:07:33.581Z,98368.34
2022-09-14T06:10:01.992Z,98353.97
2022-09-14T06:12:30.474Z,98352.88
2022-09-14T06:14:58.884Z,98356.53
2022-09-14T06:17:27.293Z,98348.22
2022-09-14T06:20:01.047Z,98351.47
2022-09-14T06:22:33.291Z,98354.69
2022-09-14T06:25:01.805Z,98355.06
2022-09-14T06:27:30.162Z,98354.59
2022-09-14T06:29:58.536Z,98362.22
2022-09-14T06:32:27.376Z,98359.44
2022-09-14T06:34:57.191Z,98365.03
2022-09-14T06:37:25.618Z,98362.66
2022-09-14T06:39:54.056Z,98363.47
2022-09-14T06:42:22.508Z,98366.72
2022-09-14T06:44:50.901Z,98368.75
2022-09-14T06:47:19.350Z,98359.72
2022-09-14T06:49:49.960Z,98368.59
2022-09-14T06:52:19.721Z,98367.06
2022-09-14T06:54:48.110Z,98373.91
2022-09-14T06:57:16.498Z,98371.53
2022-09-14T06:59:45.118Z,98367.13
2022-09-14T07:02:15.756Z,98365.44
2022-09-14T07:04:44.281Z,98372.13
2022-09-14T07:07:15.463Z,98373.63
2022-09-14T07:09:45.259Z,98377.09
2022-09-14T07:12:13.780Z,98388.69
2022-09-14T07:14:42.324Z,98391.00
2022-09-14T07:17:10.708Z,98394.63
2022-09-14T07:19:39.087Z,98379.47
2022-09-14T07:22:07.631Z,98379.53
2022-09-14T07:24:36.058Z,98380.84
2022-09-14T07:27:06.101Z,98361.84
2022-09-14T07:29:34.710Z,98359.25
2022-09-14T07:32:03.945Z,98359.09
2022-09-14T07:34:32.384Z,98365.00
2022-09-14T07:37:00.834Z,98354.56
2022-09-14T07:39:29.255Z,98368.13
2022-09-14T07:41:57.668Z,98381.69
2022-09-14T07:44:28.182Z,98378.75
2022-09-14T07:46:56.619Z,98382.31
2022-09-14T07:49:25.460Z,98387.88
2022-09-14T07:51:54.996Z,98389.34
2022-09-14T07:54:23.433Z,98376.69
2022-09-14T07:56:51.841Z,98366.50
2022-09-14T07:59:37.239Z,98374.69
2022-09-14T08:02:09.149Z,98375.63
2022-09-14T08:04:39.410Z,98375.47
2022-09-14T08:07:09.211Z,98378.47
2022-09-14T08:09:39.532Z,98371.78
2022-09-14T08:12:08.143Z,98357.47
2022-09-14T08:14:37.037Z,98362.34
2022-09-14T08:17:06.891Z,98357.19
2022-09-14T08:19:35.645Z,98362.06
2022-09-14T08:22:04.289Z,98376.19
2022-09-14T08:24:33.527Z,98370.94
2022-09-14T08:27:01.983Z,98367.00
2022-09-14T08:29:30.487Z,98364.22
2022-09-14T08:31:59.088Z,98363.44
2022-09-14T08:34:29.150Z,98365.06
2022-09-14T08:36:57.592Z,98366.72
2022-09-14T08:39:26.099Z,98361.91
2022-09-14T08:41:57.651Z,98361.91
2022-09-14T08:44:29.883Z,98355.50
2022-09-14T08:47:03.274Z,98351.47
2022-09-14T08:49:48.260Z,98353.06
2022-09-14T08:52:27.121Z,98352.25
2022-09-14T08:54:59.849Z,98355.47
2022-09-14T08:57:40.589Z,98353.50
2022-09-14T09:00:14.205Z,98354.69
2022-09-14T09:03:08.858Z,98359.13
2022-09-14T09:05:49.242Z,98354.69
2022-09-14T09:08:28.778Z,98355.47
2022-09-14T09:10:59.927Z,98344.19
2022-09-14T09:13:34.637Z,98348.25
2022-09-14T09:16:07.760Z,98345.81
2022-09-14T09:18:42.310Z,98345.41
2022-09-14T09:21:17.661Z,98343.38
2022-09-14T09:23:46.702Z,98343.34
2022-09-14T09:26:25.675Z,98350.22
2022-09-14T09:28:58.674Z,98347.75
2022-09-14T09:31:34.019Z,98348.94
2022-09-14T09:34:04.127Z,98350.94
2022-09-14T09:36:38.219Z,98352.94
2022-09-14T09:39:07.621Z,98365.47
2022-09-14T09:41:46.395Z,98371.91
2022-09-14T09:44:15.284Z,98372.72
2022-09-14T09:46:49.756Z,98373.09
2022-09-14T09:49:23.207Z,98366.59
2022-09-14T09:51:54.346Z,98368.19
2022-09-14T09:54:33.443Z,98364.50
2022-09-14T09:57:04.996Z,98361.66
2022-09-14T09:59:36.944Z,98365.25
2022-09-14T10:02:31.286Z,98374.13
2022-09-14T10:05:03.421Z,98378.50
2022-09-14T10:07:36.572Z,98389.00
2022-09-14T10:10:08.669Z,98400.34
2022-09-14T10:12:40.420Z,98406.47
2022-09-14T10:15:17.853Z,98418.25
2022-09-14T10:18:09.220Z,98402.94
2022-09-14T10:20:40.069Z,98398.94
2022-09-14T10:23:26.636Z,98403.81
2022-09-14T10:26:24.134Z,98407.09
2022-09-14T10:28:53.470Z,98405.50
2022-09-14T10:31:32.410Z,98396.63
2022-09-14T10:34:01.965Z,98390.59
2022-09-14T10:36:32.593Z,98392.97
2022-09-14T10:39:16.566Z,98389.28
2022-09-14T10:41:53.767Z,98371.13
2022-09-14T10:45:03.991Z,98362.63
2022-09-14T10:48:25.603Z,98358.94
2022-09-14T10:51:03.751Z,98361.78
2022-09-14T10:53:46.300Z,98356.88
2022-09-14T10:56:23.272Z,98351.25
2022-09-14T10:59:21.003Z,98337.94
2022-09-14T11:02:25.319Z,98324.25
2022-09-14T11:05:15.101Z,98317.78
2022-09-14T11:08:05.737Z,98318.16
2022-09-14T11:10:43.597Z,98325.84
2022-09-14T11:13:45.185Z,98329.81
2022-09-14T11:16:36.534Z,98320.59
2022-09-14T11:19:17.183Z,98330.63
2022-09-14T11:21:56.808Z,98320.94
2022-09-14T11:24:34.361Z,98318.50
2022-09-14T11:27:09.375Z,98314.88
2022-09-14T11:29:45.679Z,98312.88
2022-09-14T11:32:22.003Z,98321.75
2022-09-14T11:34:58.137Z,98313.31
2022-09-14T11:37:38.286Z,98311.75
2022-09-14T11:40:21.006Z,98305.75
2022-09-14T11:42:58.169Z,98306.22
2022-09-14T11:45:33.061Z,98299.03
2022-09-14T11:48:40.815Z,98287.75
2022-09-14T11:51:07.618Z,98274.47
2022-09-14T11:53:37.085Z,98271.66
2022-09-14T11:56:05.915Z,98263.16
2022-09-14T11:58:34.772Z,98249.03
2022-09-14T12:01:32.603Z,98243.75
2022-09-14T12:04:17.666Z,98238.47
2022-09-14T12:06:55.609Z,98227.41
2022-09-14T12:09:45.946Z,98228.13
2022-09-14T12:12:38.868Z,98210.22
2022-09-14T12:15:34.135Z,98207.66
2022-09-14T12:18:28.356Z,98196.06
2022-09-14T12:21:09.345Z,98195.88
2022-09-14T12:23:48.252Z,98182.22
2022-09-14T12:26:37.745Z,98178.66
2022-09-14T12:29:30.529Z,98176.16
2022-09-14T12:32:40.967Z,98172.63
2022-09-14T12:35:48.343Z,98166.66
2022-09-14T12:38:43.639Z,98136.56
2022-09-14T12:42:00.009Z,98142.81
2022-09-14T12:44:37.798Z,98135.75
2022-09-14T12:47:55.385Z,98150.88
2022-09-14T12:50:24.354Z,98144.94
2022-09-14T12:53:13.499Z,98155.72
2022-09-14T12:56:02.899Z,98160.34
2022-09-14T12:58:56.681Z,98158.97
2022-09-14T13:01:41.904Z,98150.53
2022-09-14T13:04:17.071Z,98145.63
2022-09-14T13:06:48.423Z,98148.53
2022-09-14T13:09:22.033Z,98143.38
2022-09-14T13:11:57.741Z,98145.09
2022-09-14T13:14:31.186Z,98148.50
2022-09-14T13:17:03.420Z,98149.25
2022-09-14T13:19:34.349Z,98142.41
2022-09-14T13:22:04.099Z,98135.25
2022-09-14T13:24:45.306Z,98135.03
2022-09-14T13:27:23.425Z,98138.34
2022-09-14T13:30:02.656Z,98139.94
2022-09-14T13:32:31.685Z,98150.00
2022-09-14T13:35:00.718Z,98135.13
2022-09-14T13:37:29.252Z,98142.22
2022-09-14T13:40:00.811Z,98129.56
2022-09-14T13:42:29.519Z,98139.84
2022-09-14T13:44:58.012Z,98138.56
2022-09-14T13:47:27.352Z,98146.06
2022-09-14T13:49:56.853Z,98151.06
2022-09-14T13:53:00.113Z,98148.03
2022-09-14T13:55:29.388Z,98155.28
2022-09-14T13:58:22.951Z,98145.69
2022-09-14T14:01:04.028Z,98156.25
2022-09-14T14:03:39.868Z,98155.56
2022-09-14T14:06:26.264Z,98155.91
2022-09-14T14:09:00.274Z,98151.47
2022-09-14T14:11:37.380Z,98156.13
2022-09-14T14:14:19.094Z,98152.59
2022-09-14T14:17:29.640Z,98148.22
2022-09-14T14:20:00.533Z,98142.38
2022-09-14T14:22:33.918Z,98138.69
2022-09-14T14:25:18.881Z,98138.22
2022-09-14T14:27:49.687Z,98145.34
2022-09-14T14:30:21.335Z,98129.38
2022-09-14T14:32:52.292Z,98136.81
2022-09-14T14:35:23.393Z,98137.94
2022-09-14T14:37:52.492Z,98128.50
2022-09-14T14:40:21.803Z,98124.16
2022-09-14T14:42:52.801Z,98122.00
2022-09-14T14:45:24.958Z,98111.81
2022-09-14T14:47:55.038Z,98113.34
2022-09-14T14:50:27.166Z,98126.56
2022-09-14T14:52:55.717Z,98125.84
2022-09-14T14:55:27.537Z,98121.47
2022-09-14T14:58:01.914Z,98116.28
2022-09-14T15:00:33.762Z,98106.69
2022-09-14T15:03:02.357Z,98109.72
2022-09-14T15:05:31.163Z,98116.84
2022-09-14T15:07:59.968Z,98124.06
2022-09-14T15:10:30.691Z,98127.25
2022-09-14T15:13:00.484Z,98125.03
2022-09-14T15:15:29.816Z,98125.69
2022-09-14T15:17:58.557Z,98125.06
2022-09-14T15:20:27.482Z,98132.03
2022-09-14T15:22:55.984Z,98122.81
2022-09-14T15:25:24.344Z,98124.50
2022-09-14T15:27:52.709Z,98131.47
2022-09-14T15:30:22.542Z,98133.97
2022-09-14T15:32:50.905Z,98128.34
2022-09-14T15:35:19.440Z,98126.78
2022-09-14T15:37:48.579Z,98125.22
2022-09-14T15:40:17.310Z,98124.47
2022-09-14T15:42:45.772Z,98124.50
2022-09-14T15:45:14.659Z,98115.22
2022-09-14T15:47:47.008Z,98117.25
2022-09-14T15:50:16.145Z,98114.41
2022-09-14T15:52:44.618Z,98112.00
2022-09-14T15:55:13.967Z,98103.94
2022-09-14T15:57:42.495Z,98105.56
2022-09-14T16:00:15.489Z,98093.06
2022-09-14T16:02:45.363Z,98099.97
2022-09-14T16:05:16.119Z,98092.31
2022-09-14T16:07:44.483Z,98096.38
2022-09-14T16:10:12.968Z,98100.91
2022-09-14T16:12:41.374Z,98098.94
2022-09-14T16:15:11.332Z,98095.41
2022-09-14T16:17:39.654Z,98088.59
2022-09-14T16:20:11.223Z,98089.09
2022-09-14T16:22:39.647Z,98090.00
2022-09-14T16:25:08.402Z,98088.44
2022-09-14T16:27:36.824Z,98092.94
2022-09-14T16:30:06.317Z,98086.97
2022-09-14T16:32:34.714Z,98079.75
2022-09-14T16:35:07.972Z,98075.81
2022-09-14T16:37:38.214Z,98067.03
2022-09-14T16:40:07.947Z,98073.19
2022-09-14T16:42:36.394Z,98066.38
2022-09-14T16:45:05.444Z,98062.06
2022-09-14T16:47:33.803Z,98054.44
2022-09-14T16:50:02.178Z,98056.53
2022-09-14T16:52:30.491Z,98051.75
2022-09-14T16:55:00.290Z,98047.75
2022-09-14T16:57:29.888Z,98034.09
2022-09-14T16:59:58.211Z,98036.97
2022-09-14T17:02:26.728Z,98042.63
2022-09-14T17:04:55.252Z,98029.38
2022-09-14T17:07:23.880Z,98012.06
2022-09-14T17:09:52.333Z,98011.31
2022-09-14T17:12:22.188Z,98012.13
2022-09-14T17:14:50.808Z,98008.94
2022-09-14T17:17:19.181Z,98017.78
2022-09-14T17:19:47.661Z,98021.03
2022-09-14T17:22:16.070Z,98019.84
2022-09-14T17:24:44.432Z,98014.25
2022-09-14T17:27:12.779Z,98014.66
2022-09-14T17:29:42.579Z,98015.06
2022-09-14T17:32:14.737Z,98007.03
2022-09-14T17:34:43.586Z,98002.59
2022-09-14T17:37:12.053Z,98003.81
2022-09-14T17:39:40.483Z,98003.47
2022-09-14T17:42:09.026Z,98004.69
2022-09-14T17:44:37.432Z,98011.09
2022-09-14T17:47:07.680Z,98005.06
2022-09-14T17:49:36.073Z,98005.47
2022-09-14T17:52:04.477Z,98000.22
2022-09-14T17:54:33.655Z,97996.63
2022-09-14T17:57:02.119Z,97992.19
2022-09-14T17:59:30.511Z,98002.63
2022-09-14T18:01:58.940Z,97989.38
2022-09-14T18:04:28.798Z,97996.59
2022-09-14T18:06:57.171Z,97997.41
2022-09-14T18:09:25.689Z,97992.59
2022-09-14T18:11:57.295Z,98005.09
2022-09-14T18:14:26.152Z,97991.00
2022-09-14T18:16:54.628Z,97990.19
2022-09-14T18:19:23.573Z,97989.78
2022-09-14T18:21:53.918Z,97978.91
2022-09-14T18:24:23.022Z,97973.28
2022-09-14T18:26:52.283Z,97978.50
2022-09-14T18:29:23.285Z,97978.13
2022-09-14T18:31:54.174Z,97978.94
2022-09-14T18:34:24.530Z,97979.72
2022-09-14T18:36:54.598Z,97980.50
2022-09-14T18:39:23.665Z,97989.38
2022-09-14T18:41:54.114Z,97975.72
2022-09-14T18:44:24.080Z,97978.91
2022-09-14T18:46:54.800Z,97979.31
2022-09-14T18:49:23.403Z,97973.31
2022-09-14T18:51:53.641Z,97983.34
2022-09-14T18:54:27.455Z,97983.78
2022-09-14T18:56:56.675Z,98001.88
2022-09-14T18:59:25.608Z,97995.44
2022-09-14T19:01:55.603Z,97992.59
2022-09-14T19:04:24.322Z,97993.84
2022-09-14T19:06:54.715Z,97997.84
2022-09-14T19:09:23.709Z,97992.63
2022-09-14T19:11:52.525Z,98000.25
2022-09-14T19:14:21.347Z,97997.88
2022-09-14T19:16:51.791Z,97982.97
2022-09-14T19:19:20.839Z,97979.34
2022-09-14T19:21:49.674Z,97969.69
2022-09-14T19:24:20.167Z,97961.25
2022-09-14T19:26:51.641Z,97980.56
2022-09-14T19:29:23.800Z,98010.31
2022-09-14T19:31:54.702Z,98050.13
2022-09-14T19:34:25.875Z,98059.72
2022-09-14T19:36:55.165Z,98087.38
2022-09-14T19:39:26.817Z,98136.66
2022-09-14T19:41:55.308Z,98171.47
2022-09-14T19:44:24.014Z,98194.91
2022-09-14T19:46:53.177Z,98213.03
2022-09-14T19:49:25.042Z,98232.28
2022-09-14T19:51:54.510Z,98238.00
2022-09-14T19:54:24.377Z,98248.91
2022-09-14T19:56:53.256Z,98257.81
2022-09-14T19:59:22.033Z,98259.97
2022-09-14T20:01:51.329Z,98257.75
2022-09-14T20:04:20.699Z,98248.00
2022-09-14T20:06:49.758Z,98237.88
2022-09-14T20:09:21.673Z,98239.34
2022-09-14T20:11:53.824Z,98230.09
2022-09-14T20:14:24.738Z,98223.66
2022-09-14T20:16:56.303Z,98203.25
2022-09-14T20:19:28.047Z,98192.94
2022-09-14T20:21:57.891Z,98189.34
2022-09-14T20:24:31.244Z,98160.16
2022-09-14T20:27:02.443Z,98142.63
2022-09-14T20:29:34.537Z,98124.22
2022-09-14T20:32:04.229Z,98115.88
2022-09-14T20:34:34.407Z,98097.88
2022-09-14T20:37:02.770Z,98100.31
2022-09-14T20:39:31.308Z,98079.94
2022-09-14T20:42:01.021Z,98099.97
2022-09-14T20:44:29.391Z,98102.78
2022-09-14T20:46:57.975Z,98103.13
2022-09-14T20:49:26.730Z,98086.31
2022-09-14T20:51:56.677Z,98081.94
2022-09-14T20:54:25.158Z,98094.31
2022-09-14T20:56:53.569Z,98080.69
2022-09-14T20:59:23.742Z,98062.63
2022-09-14T21:01:53.807Z,98062.63
2022-09-14T21:04:24.666Z,98065.81
2022-09-14T21:06:55.656Z,98071.78
2022-09-14T21:09:26.448Z,98070.97
2022-09-14T21:11:55.512Z,98063.38
2022-09-14T21:14:25.445Z,98065.75
2022-09-14T21:16:56.852Z,98073.75
2022-09-14T21:19:28.038Z,98084.53
2022-09-14T21:21:56.752Z,98077.69
2022-09-14T21:24:25.408Z,98086.41
2022-09-14T21:26:53.900Z,98083.56
2022-09-14T21:29:24.830Z,98083.84
2022-09-14T21:31:53.989Z,98083.78
2022-09-14T21:34:22.702Z,98087.38
2022-09-14T21:36:52.911Z,98085.69
2022-09-14T21:39:24.465Z,98091.63
2022-09-14T21:41:58.297Z,98090.38
2022-09-14T21:44:31.954Z,98092.31
2022-09-14T21:47:00.625Z,98094.31
2022-09-14T21:49:29.170Z,98100.28
2022-09-14T21:51:57.488Z,98104.25
2022-09-14T21:54:25.941Z,98099.41
2022-09-14T21:56:55.152Z,98100.59
2022-09-14T21:59:24.969Z,98097.81
2022-09-14T22:01:54.841Z,98093.38
2022-09-14T22:04:26.241Z,98093.38
2022-09-14T22:06:55.241Z,98089.75
2022-09-14T22:09:27.311Z,98087.34
2022-09-14T22:11:56.126Z,98098.94
2022-09-14T22:14:27.721Z,98084.50
2022-09-14T22:16:57.729Z,98095.69
2022-09-14T22:19:29.010Z,98095.69
2022-09-14T22:21:57.989Z,98106.91
2022-09-14T22:24:38.747Z,98109.69
2022-09-14T22:27:09.190Z,98095.69
2022-09-14T22:29:38.481Z,98088.47
2022-09-14T22:32:10.464Z,98102.47
2022-09-14T22:34:39.667Z,98091.66
2022-09-14T22:37:08.043Z,98082.44
2022-09-14T22:39:36.620Z,98077.66
2022-09-14T22:42:05.928Z,98092.81
2022-09-14T22:44:34.241Z,98100.41
2022-09-14T22:47:02.527Z,98103.59
2022-09-14T22:49:32.174Z,98110.81
2022-09-14T22:52:00.597Z,98116.03
2022-09-14T22:54:29.032Z,98109.63
2022-09-14T22:56:57.572Z,98116.41
2022-09-14T22:59:26.201Z,98112.41
2022-09-14T23:01:54.546Z,98112.41
2022-09-14T23:04:23.276Z,98090.84
2022-09-14T23:06:52.921Z,98088.03
2022-09-14T23:09:23.594Z,98083.63
2022-09-14T23:11:51.934Z,98087.22
2022-09-14T23:14:20.287Z,98082.44
2022-09-14T23:16:48.639Z,98092.00
2022-09-14T23:19:18.921Z,98104.84
2022-09-14T23:21:48.889Z,98102.84
2022-09-14T23:24:18.573Z,98108.44
2022-09-14T23:26:46.871Z,98100.88
2022-09-14T23:29:18.004Z,98099.25
2022-09-14T23:31:46.393Z,98110.44
2022-09-14T23:34:14.739Z,98103.66
2022-09-14T23:36:43.068Z,98105.66
2022-09-14T23:39:11.596Z,98107.25
2022-09-14T23:41:41.297Z,98102.84
2022-09-14T23:44:12.501Z,98093.66
2022-09-14T23:46:41.069Z,98096.06
2022-09-14T23:49:09.601Z,98107.25
2022-09-14T23:51:37.916Z,98112.50
2022-09-14T23:54:08.248Z,98108.50
2022-09-14T23:56:38.615Z,98111.28
2022-09-14T23:59:11.422Z,98110.47
